Pagrindinis puslapis
METAR-TAF:

METAR-TAF

Oro uostai :

Hargeisos tarptautinis oro uostas

Hargeisa, Somalis

platuma: 09-30N, ilguma: 044-05E, Aukštis: 1326 m

Dabartinis oras

Ataskaita buvo paskelbta 7 valandos ir 33 minutes, ne 13:00 UTC
Vėjas 4 kt iš Vakarų/Šiaurės Vakarų
Temperatūra 29°C
Drėgmė 40%
Slėgis 1015 hPa
Matomumas 10 km arba daugiau
Išsisklaidę debesys ne aukštis 2500 ft

METAR: HCMH 171300Z 29004KT 9999 SCT025 29/14 Q1015

Laikas: 23:33 (20:33 UTC)


TAF: trūkstamas

Orai ataskaitas ir orų prognozės (METAR, TAF).

turimą stotys yra geltonos ir raudonos taškus žemėlapyje.

Perkelti pele per norėdami pamatyti stoties vardą.

Tada spustelėkite, norėdami matyti oro stebėjimo ir prognozės.

Norėdami pakeisti žemėlapį: spustelėkite ant žalios mygtukų su juodo kryžiaus žemyn,; žalią mygtuką su brūkšneliu, jei norite nutolinti; arba žalių rodyklių gretimoms žemėlapius.


METAR-TAF: